Time,TemperatureF,DewpointF,PressureIn,WindDirection,WindDirectionDegrees,WindSpeedMPH,WindSpeedGustMPH,Humidity,HourlyPrecipIn,Conditions,Clouds,dailyrainin,SoftwareType,DateUTC
2013-08-16 00:00:00,63.0,48.0,30.37,SSW,198,1.0,5.0,59,0.00,,,0.03,,2013-08-16 07:00:00,
2013-08-16 00:01:00,63.0,48.0,30.37,SSW,198,1.0,5.0,59,0.00,,,0.03,,2013-08-16 07:01:00,
2013-08-16 00:21:00,62.0,48.0,30.35,North,0,0.0,1.0,60,0.00,,,0.03,,2013-08-16 07:21:00,
2013-08-16 00:31:00,62.0,48.0,30.35,North,0,0.0,1.0,60,0.00,,,0.03,,2013-08-16 07:31:00,
2013-08-16 00:52:00,61.0,48.0,30.35,North,0,0.0,0.0,63,0.00,,,0.03,,2013-08-16 07:52:00,
2013-08-16 01:21:00,60.0,49.0,30.35,North,0,0.0,2.0,66,0.00,,,0.03,,2013-08-16 08:21:00,
2013-08-16 01:52:00,57.0,48.0,30.34,SW,219,1.0,3.0,71,0.00,,,0.03,,2013-08-16 08:52:00,
2013-08-16 02:01:00,57.0,48.0,30.34,SW,219,1.0,3.0,71,0.00,,,0.03,,2013-08-16 09:01:00,
2013-08-16 02:21:00,57.0,48.0,30.33,North,0,0.0,0.0,72,0.00,,,0.03,,2013-08-16 09:21:00,
2013-08-16 02:33:00,57.0,48.0,30.33,North,0,0.0,0.0,72,0.00,,,0.03,,2013-08-16 09:33:00,
2013-08-16 02:53:00,57.0,48.0,30.33,North,0,0.0,0.0,72,0.00,,,0.03,,2013-08-16 09:53:00,
2013-08-16 03:23:00,57.0,48.0,30.34,SE,136,3.0,7.0,72,0.00,,,0.03,,2013-08-16 10:23:00,
2013-08-16 03:52:00,57.0,48.0,30.34,North,0,0.0,5.0,72,0.00,,,0.03,,2013-08-16 10:52:00,
2013-08-16 04:21:00,55.0,48.0,30.35,North,0,0.0,3.0,76,0.00,,,0.03,,2013-08-16 11:21:00,
2013-08-16 04:52:00,54.0,47.0,30.36,North,0,0.0,2.0,77,0.00,,,0.03,,2013-08-16 11:52:00,
2013-08-16 05:12:00,54.0,48.0,30.36,North,0,0.0,1.0,79,0.00,,,0.03,,2013-08-16 12:12:00,
2013-08-16 05:21:00,54.0,48.0,30.37,North,0,0.0,1.0,79,0.00,,,0.03,,2013-08-16 12:21:00,
2013-08-16 05:52:00,53.0,47.0,30.38,North,0,0.0,0.0,81,0.00,,,0.03,,2013-08-16 12:52:00,
2013-08-16 06:21:00,52.0,47.0,30.37,North,0,0.0,1.0,84,0.00,,,0.03,,2013-08-16 13:21:00,
2013-08-16 06:53:00,53.0,48.0,30.38,North,0,0.0,2.0,83,0.00,,,0.03,,2013-08-16 13:53:00,
2013-08-16 07:01:00,53.0,48.0,30.38,North,0,0.0,2.0,83,0.00,,,0.03,,2013-08-16 14:01:00,
2013-08-16 07:11:00,53.0,48.0,30.38,North,0,0.0,2.0,83,0.00,,,0.03,,2013-08-16 14:11:00,
2013-08-16 07:21:00,53.0,48.0,30.38,North,0,0.0,2.0,83,0.00,,,0.03,,2013-08-16 14:21:00,
2013-08-16 07:52:00,63.0,52.0,30.39,SE,128,1.0,3.0,68,0.00,,,0.03,,2013-08-16 14:52:00,
2013-08-16 08:22:00,68.0,54.0,30.39,SSE,150,1.0,3.0,60,0.00,,,0.03,,2013-08-16 15:22:00,
2013-08-16 08:56:00,73.0,54.0,30.38,North,0,0.0,1.0,52,0.00,,,0.03,,2013-08-16 15:56:00,
2013-08-16 09:04:00,73.0,54.0,30.38,North,0,0.0,1.0,52,0.00,,,0.03,,2013-08-16 16:04:00,
2013-08-16 09:23:00,78.0,50.0,30.39,North,0,0.0,3.0,38,0.00,,,0.03,,2013-08-16 16:23:00,
2013-08-16 09:57:00,79.0,49.0,30.37,West,274,1.0,5.0,35,0.00,,,0.03,,2013-08-16 16:57:00,
2013-08-16 10:28:00,81.0,47.0,30.38,SSW,207,3.0,5.0,31,0.00,,,0.03,,2013-08-16 17:28:00,
2013-08-16 11:00:00,83.0,48.0,30.40,West,263,5.0,8.0,30,0.00,,,0.03,,2013-08-16 18:00:00,
2013-08-16 11:27:00,83.0,45.0,30.38,North,0,0.0,4.0,26,0.00,,,0.03,,2013-08-16 18:27:00,
2013-08-16 11:50:00,-999.0,-99.9,30.37,North,0,0.0,7.0,25,0.00,,,0.02,,2013-08-16 18:50:00,
2013-08-16 12:02:00,84.0,44.0,30.37,North,0,0.0,7.0,25,0.00,,,0.02,,2013-08-16 19:02:00,
2013-08-16 12:25:00,78.0,50.0,30.37,NE,41,7.0,18.0,37,0.00,,,0.01,,2013-08-16 19:25:00,
2013-08-16 12:55:00,81.0,49.0,30.36,North,359,7.0,11.0,33,0.00,,,0.01,,2013-08-16 19:55:00,
2013-08-16 13:23:00,80.0,51.0,30.36,NE,49,3.0,12.0,36,0.00,,,0.00,,2013-08-16 20:23:00,
2013-08-16 13:52:00,78.0,56.0,30.36,NW,324,1.0,9.0,46,0.00,,,0.00,,2013-08-16 20:52:00,
2013-08-16 14:25:00,65.0,55.0,30.39,SE,142,6.0,13.0,71,0.02,,,0.02,,2013-08-16 21:25:00,
2013-08-16 14:40:00,-999.0,-99.9,30.38,WNW,291,2.0,6.0,-999,0.04,,,0.04,,2013-08-16 21:40:00,
2013-08-16 14:53:00,65.0,58.0,30.39,North,0,0.0,6.0,79,0.04,,,0.04,,2013-08-16 21:53:00,
2013-08-16 15:24:00,71.0,62.0,30.37,North,0,0.0,2.0,74,0.02,,,0.05,,2013-08-16 22:24:00,
2013-08-16 15:52:00,77.0,49.0,30.35,North,0,0.0,3.0,37,0.03,,,0.07,,2013-08-16 22:52:00,
2013-08-16 16:12:00,78.0,51.0,30.35,North,0,0.0,2.0,39,0.02,,,0.07,,2013-08-16 23:12:00,
2013-08-16 16:23:00,78.0,51.0,30.35,North,0,0.0,2.0,39,0.02,,,0.07,,2013-08-16 23:23:00,
2013-08-16 16:42:00,80.0,51.0,30.35,SE,144,2.0,6.0,36,0.02,,,0.08,,2013-08-16 23:42:00,
2013-08-16 16:52:00,80.0,51.0,30.35,SE,144,2.0,6.0,36,0.02,,,0.08,,2013-08-16 23:52:00,
2013-08-16 17:21:00,78.0,55.0,30.34,North,0,0.0,1.0,45,0.01,,,0.09,,2013-08-17 00:21:00,
2013-08-16 17:51:00,77.0,55.0,30.34,North,0,0.0,2.0,47,0.00,,,0.09,,2013-08-17 00:51:00,
2013-08-16 18:21:00,77.0,51.0,30.34,WNW,297,5.0,10.0,41,0.00,,,0.09,,2013-08-17 01:21:00,
2013-08-16 18:32:00,77.0,51.0,30.34,WNW,297,5.0,10.0,41,0.00,,,0.09,,2013-08-17 01:32:00,
2013-08-16 18:52:00,78.0,51.0,30.34,North,0,0.0,3.0,39,0.00,,,0.09,,2013-08-17 01:52:00,
2013-08-16 19:11:00,77.0,51.0,30.34,North,0,0.0,4.0,40,0.00,,,0.09,,2013-08-17 02:11:00,
2013-08-16 19:21:00,77.0,51.0,30.34,North,0,0.0,4.0,40,0.00,,,0.09,,2013-08-17 02:21:00,
2013-08-16 19:52:00,70.0,56.0,30.34,North,0,0.0,1.0,62,0.00,,,0.09,,2013-08-17 02:52:00,
2013-08-16 20:21:00,68.0,56.0,30.35,North,0,0.0,0.0,65,0.00,,,0.09,,2013-08-17 03:21:00,
2013-08-16 20:53:00,67.0,55.0,30.36,North,0,0.0,3.0,66,0.00,,,0.09,,2013-08-17 03:53:00,
2013-08-16 21:03:00,67.0,55.0,30.36,North,0,0.0,3.0,66,0.00,,,0.09,,2013-08-17 04:03:00,
2013-08-16 21:23:00,66.0,53.0,30.37,North,0,0.0,2.0,64,0.00,,,0.09,,2013-08-17 04:23:00,
2013-08-16 21:53:00,66.0,53.0,30.37,North,0,0.0,4.0,63,0.00,,,0.09,,2013-08-17 04:53:00,
2013-08-16 22:03:00,66.0,53.0,30.37,North,0,0.0,4.0,63,0.00,,,0.09,,2013-08-17 05:03:00,
2013-08-16 22:23:00,70.0,53.0,30.38,North,0,0.0,9.0,54,0.00,,,0.09,,2013-08-17 05:23:00,
2013-08-16 22:52:00,70.0,53.0,30.37,North,0,0.0,1.0,54,0.00,,,0.09,,2013-08-17 05:52:00,
2013-08-16 23:21:00,70.0,52.0,30.37,North,0,0.0,3.0,52,0.00,,,0.09,,2013-08-17 06:21:00,
2013-08-16 23:31:00,70.0,52.0,30.37,North,0,0.0,3.0,52,0.00,,,0.09,,2013-08-17 06:31:00,
2013-08-16 23:51:00,71.0,51.0,30.37,SW,236,1.0,5.0,50,0.00,,,0.09,,2013-08-17 06:51:00,